createdAt,value
2022-10-17T00:00:43.843Z,12.10
2022-10-17T00:03:11.649Z,12.10
2022-10-17T00:05:48.088Z,12.00
2022-10-17T00:08:17.655Z,12.10
2022-10-17T00:10:45.430Z,12.00
2022-10-17T00:13:13.184Z,12.00
2022-10-17T00:15:45.293Z,12.10
2022-10-17T00:18:12.737Z,11.90
2022-10-17T00:20:40.095Z,12.00
2022-10-17T00:23:07.412Z,11.90
2022-10-17T00:25:34.972Z,12.00
2022-10-17T00:28:02.318Z,11.80
2022-10-17T00:30:29.730Z,11.60
2022-10-17T00:32:57.025Z,11.60
2022-10-17T00:35:24.346Z,11.50
2022-10-17T00:37:51.980Z,11.40
2022-10-17T00:40:19.531Z,11.40
2022-10-17T00:42:47.102Z,11.40
2022-10-17T00:45:24.698Z,11.40
2022-10-17T00:48:04.172Z,11.30
2022-10-17T00:50:32.422Z,11.40
2022-10-17T00:53:03.210Z,11.20
2022-10-17T00:55:35.238Z,11.10
2022-10-17T00:58:04.801Z,11.20
2022-10-17T01:00:32.246Z,11.30
2022-10-17T01:02:59.876Z,11.20
2022-10-17T01:05:27.251Z,11.10
2022-10-17T01:07:55.364Z,11.10
2022-10-17T01:10:30.144Z,11.00
2022-10-17T01:13:21.071Z,11.00
2022-10-17T01:16:03.951Z,10.80
2022-10-17T01:18:48.505Z,10.80
2022-10-17T01:21:45.137Z,10.60
2022-10-17T01:24:31.236Z,10.50
2022-10-17T01:27:10.425Z,10.40
2022-10-17T01:30:15.593Z,10.30
2022-10-17T01:32:59.288Z,10.10
2022-10-17T01:35:38.694Z,10.00
2022-10-17T01:38:13.232Z,10.00
2022-10-17T01:41:01.254Z,10.00
2022-10-17T01:43:36.945Z,9.90
2022-10-17T01:46:27.355Z,9.90
2022-10-17T01:48:56.293Z,10.00
2022-10-17T01:51:32.148Z,10.00
2022-10-17T01:54:05.622Z,10.00
2022-10-17T01:56:34.650Z,10.10
2022-10-17T01:59:09.870Z,10.10
2022-10-17T02:01:39.471Z,10.20
2022-10-17T02:04:09.411Z,10.20
2022-10-17T02:06:37.932Z,10.10
2022-10-17T02:09:20.146Z,10.10
2022-10-17T02:12:17.702Z,10.20
2022-10-17T02:15:33.208Z,10.20
2022-10-17T02:18:18.656Z,10.20
2022-10-17T02:20:58.317Z,10.10
2022-10-17T02:23:38.801Z,10.20
2022-10-17T02:26:28.567Z,10.20
2022-10-17T02:29:16.017Z,10.20
2022-10-17T02:31:52.170Z,10.20
2022-10-17T02:34:28.331Z,10.20
2022-10-17T02:37:02.663Z,10.20
2022-10-17T02:39:32.200Z,10.20
2022-10-17T02:42:03.849Z,10.10
2022-10-17T02:44:32.756Z,10.20
2022-10-17T02:47:09.632Z,10.20
2022-10-17T02:49:42.145Z,10.20
2022-10-17T02:52:16.369Z,10.10
2022-10-17T02:54:52.840Z,10.10
2022-10-17T02:57:37.169Z,10.10
2022-10-17T03:00:09.252Z,10.10
2022-10-17T03:02:43.807Z,10.20
2022-10-17T03:05:13.543Z,10.10
2022-10-17T03:07:40.950Z,10.20
2022-10-17T03:10:08.679Z,10.20
2022-10-17T03:12:36.084Z,10.10
2022-10-17T03:15:03.968Z,10.10
2022-10-17T03:17:31.366Z,10.10
2022-10-17T03:19:58.834Z,10.10
2022-10-17T03:22:26.409Z,10.10
2022-10-17T03:24:53.985Z,10.10
2022-10-17T03:27:21.436Z,10.10
2022-10-17T03:29:48.946Z,10.10
2022-10-17T03:32:16.317Z,10.10
2022-10-17T03:34:43.665Z,10.10
2022-10-17T03:37:11.159Z,10.00
2022-10-17T03:39:38.334Z,9.90
2022-10-17T03:42:05.571Z,9.90
2022-10-17T03:44:33.102Z,9.90
2022-10-17T03:47:00.219Z,9.90
2022-10-17T03:49:27.404Z,9.80
2022-10-17T03:51:54.782Z,9.90
2022-10-17T03:54:22.117Z,9.90
2022-10-17T03:56:49.530Z,9.90
2022-10-17T03:59:17.157Z,9.90
2022-10-17T04:01:44.805Z,9.90
2022-10-17T04:04:12.163Z,9.90
2022-10-17T04:06:39.724Z,9.90
2022-10-17T04:09:08.226Z,9.90
2022-10-17T04:11:35.445Z,9.90
2022-10-17T04:14:02.748Z,9.90
2022-10-17T04:16:30.267Z,9.90
2022-10-17T04:18:59.627Z,9.90
2022-10-17T04:21:28.829Z,9.90
2022-10-17T04:23:59.675Z,9.90
2022-10-17T04:26:28.032Z,9.90
2022-10-17T04:28:55.472Z,9.80
2022-10-17T04:31:22.892Z,9.80
2022-10-17T04:33:51.148Z,9.70
2022-10-17T04:36:20.324Z,9.70
2022-10-17T04:38:47.710Z,9.80
2022-10-17T04:41:18.390Z,9.70
2022-10-17T04:43:50.093Z,9.70
2022-10-17T04:46:18.630Z,9.60
2022-10-17T04:48:46.032Z,9.70
2022-10-17T04:51:21.762Z,9.70
2022-10-17T04:53:51.793Z,9.70
2022-10-17T04:56:23.586Z,9.70
2022-10-17T04:58:51.914Z,9.70
2022-10-17T05:01:21.551Z,9.70
2022-10-17T05:03:48.984Z,9.70
2022-10-17T05:06:19.585Z,9.60
2022-10-17T05:08:47.775Z,9.60
2022-10-17T05:11:27.110Z,9.60
2022-10-17T05:13:59.790Z,9.60
2022-10-17T05:16:28.734Z,9.60
2022-10-17T05:18:57.992Z,9.70
2022-10-17T05:21:26.888Z,9.70
2022-10-17T05:23:54.615Z,9.70
2022-10-17T05:26:22.910Z,9.70
2022-10-17T05:28:52.631Z,9.60
2022-10-17T05:31:20.616Z,9.60
2022-10-17T05:33:48.109Z,9.60
2022-10-17T05:36:15.456Z,9.60
2022-10-17T05:38:42.974Z,9.60
2022-10-17T05:41:10.779Z,9.70
2022-10-17T05:43:38.094Z,9.80
2022-10-17T05:46:08.111Z,9.90
2022-10-17T05:48:35.974Z,10.20
2022-10-17T05:51:06.095Z,10.30
2022-10-17T05:53:35.389Z,10.50
2022-10-17T05:56:05.821Z,10.60
2022-10-17T05:58:52.423Z,10.80
2022-10-17T06:01:21.551Z,11.00
2022-10-17T06:03:49.055Z,11.10
2022-10-17T06:06:18.013Z,11.20
2022-10-17T06:08:46.111Z,11.30
2022-10-17T06:11:13.864Z,11.50
2022-10-17T06:13:41.656Z,11.60
2022-10-17T06:16:09.620Z,11.60
2022-10-17T06:18:36.930Z,11.70
2022-10-17T06:21:10.539Z,11.90
2022-10-17T06:23:38.055Z,12.10
2022-10-17T06:26:07.352Z,12.00
2022-10-17T06:28:35.912Z,12.00
2022-10-17T06:31:07.709Z,11.70
2022-10-17T06:33:35.455Z,11.70
2022-10-17T06:36:04.030Z,11.70
2022-10-17T06:38:31.671Z,11.80
2022-10-17T06:41:16.254Z,11.60
2022-10-17T06:43:47.895Z,11.60
2022-10-17T06:46:17.536Z,11.60
2022-10-17T06:48:44.990Z,11.50
2022-10-17T06:51:12.839Z,11.40
2022-10-17T06:53:41.494Z,11.40
2022-10-17T06:56:10.416Z,11.40
2022-10-17T06:58:39.929Z,11.40
2022-10-17T07:01:12.855Z,11.40
2022-10-17T07:03:41.486Z,11.30
2022-10-17T07:06:11.056Z,11.20
2022-10-17T07:08:38.469Z,11.20
2022-10-17T07:11:18.335Z,11.20
2022-10-17T07:13:45.975Z,11.10
2022-10-17T07:16:14.349Z,11.30
2022-10-17T07:18:41.946Z,11.30
2022-10-17T07:21:10.247Z,11.20
2022-10-17T07:23:38.840Z,11.30
2022-10-17T07:26:09.412Z,11.30
2022-10-17T07:28:38.909Z,11.30
2022-10-17T07:31:13.135Z,11.20
2022-10-17T07:33:40.771Z,11.30
2022-10-17T07:36:08.722Z,11.40
2022-10-17T07:38:37.330Z,11.50
2022-10-17T07:41:06.657Z,11.50
2022-10-17T07:43:34.811Z,11.70
2022-10-17T07:46:03.430Z,11.70
2022-10-17T07:48:31.234Z,11.70
2022-10-17T07:50:58.570Z,11.80
2022-10-17T07:53:26.009Z,12.00
2022-10-17T07:55:53.415Z,12.00
2022-10-17T07:58:20.944Z,12.00
2022-10-17T08:00:49.337Z,12.10
2022-10-17T08:03:16.820Z,12.20
2022-10-17T08:05:44.180Z,12.10
2022-10-17T08:08:11.494Z,12.10
2022-10-17T08:10:38.955Z,12.10
2022-10-17T08:13:06.414Z,12.20
2022-10-17T08:15:33.771Z,12.20
2022-10-17T08:18:01.209Z,12.20
2022-10-17T08:20:28.614Z,12.20
2022-10-17T08:22:56.341Z,12.20
2022-10-17T08:25:24.454Z,12.20
2022-10-17T08:27:52.294Z,12.30
2022-10-17T08:30:19.803Z,12.40
2022-10-17T08:32:47.202Z,12.50
2022-10-17T08:35:15.245Z,12.50
2022-10-17T08:37:43.071Z,12.60
2022-10-17T08:40:26.785Z,12.80
2022-10-17T08:42:56.825Z,12.80
2022-10-17T08:45:32.784Z,13.10
2022-10-17T08:48:02.969Z,13.10
2022-10-17T08:50:53.379Z,13.20
2022-10-17T08:53:46.824Z,13.20
2022-10-17T08:56:19.858Z,13.30
2022-10-17T08:58:52.490Z,13.30
2022-10-17T09:01:32.020Z,13.30
2022-10-17T09:04:05.304Z,13.40
2022-10-17T09:06:39.908Z,13.40
2022-10-17T09:09:36.143Z,13.50
2022-10-17T09:12:25.690Z,13.60
2022-10-17T09:15:23.817Z,13.60
2022-10-17T09:18:08.098Z,13.50
2022-10-17T09:20:46.258Z,13.60
2022-10-17T09:23:18.946Z,13.60
2022-10-17T09:25:50.178Z,13.50
2022-10-17T09:28:36.563Z,13.60
2022-10-17T09:31:07.952Z,13.70
2022-10-17T09:33:55.438Z,13.90
2022-10-17T09:36:31.804Z,13.90
2022-10-17T09:39:03.895Z,13.90
2022-10-17T09:41:46.518Z,14.00
2022-10-17T09:44:19.597Z,14.00
2022-10-17T09:47:00.487Z,14.30
2022-10-17T09:49:34.285Z,14.40
2022-10-17T09:52:06.487Z,14.50
2022-10-17T09:54:55.007Z,14.70
2022-10-17T09:57:22.971Z,14.60
2022-10-17T09:59:57.685Z,14.60
2022-10-17T10:02:27.800Z,14.80
2022-10-17T10:05:05.041Z,14.80
2022-10-17T10:07:36.084Z,14.90
2022-10-17T10:10:05.732Z,14.90
2022-10-17T10:12:37.042Z,15.00
2022-10-17T10:15:41.648Z,14.90
2022-10-17T10:18:27.027Z,14.90
2022-10-17T10:21:09.813Z,14.90
2022-10-17T10:23:42.141Z,14.80
2022-10-17T10:26:21.733Z,14.90
2022-10-17T10:29:05.082Z,15.00
2022-10-17T10:31:38.896Z,14.90
2022-10-17T10:34:29.767Z,14.90
2022-10-17T10:37:25.644Z,14.90
2022-10-17T10:39:54.803Z,14.90
2022-10-17T10:42:40.742Z,15.00
2022-10-17T10:45:42.851Z,14.90
2022-10-17T10:48:23.922Z,15.00
2022-10-17T10:50:53.625Z,14.90
2022-10-17T10:53:59.480Z,14.90
2022-10-17T10:56:35.669Z,14.90
2022-10-17T10:59:11.231Z,14.90
2022-10-17T11:01:54.252Z,14.90
2022-10-17T11:04:42.760Z,14.80
2022-10-17T11:07:20.338Z,14.90
2022-10-17T11:10:09.398Z,14.90
2022-10-17T11:12:49.412Z,15.10
2022-10-17T11:15:31.775Z,15.10
2022-10-17T11:18:03.144Z,15.30
2022-10-17T11:21:11.443Z,15.20
2022-10-17T11:23:54.727Z,15.20
2022-10-17T11:26:27.875Z,15.30
2022-10-17T11:28:59.322Z,15.30
2022-10-17T11:31:35.691Z,15.30
2022-10-17T11:34:20.074Z,15.40
2022-10-17T11:36:51.454Z,15.40
2022-10-17T11:39:42.186Z,15.30
2022-10-17T11:42:36.509Z,15.30
2022-10-17T11:45:11.049Z,15.30
2022-10-17T11:48:03.874Z,15.40
2022-10-17T11:53:27.782Z,15.50
2022-10-17T11:55:58.212Z,15.40
2022-10-17T11:58:54.267Z,15.40
2022-10-17T12:01:39.106Z,15.30
2022-10-17T12:04:37.949Z,15.30
2022-10-17T12:07:30.395Z,15.30
2022-10-17T12:10:17.557Z,15.30
2022-10-17T12:12:44.902Z,15.30
2022-10-17T12:15:20.982Z,15.30
2022-10-17T12:18:01.397Z,15.40
2022-10-17T12:20:32.232Z,15.30
2022-10-17T12:23:13.233Z,15.30
2022-10-17T12:26:04.490Z,15.40
2022-10-17T12:28:38.371Z,15.30
2022-10-17T12:31:33.868Z,15.20
2022-10-17T12:34:04.468Z,15.10
2022-10-17T12:36:31.767Z,15.20
2022-10-17T12:39:07.801Z,15.20
2022-10-17T12:41:41.110Z,15.20
2022-10-17T12:44:14.582Z,15.20
2022-10-17T12:47:09.660Z,15.10
2022-10-17T12:49:47.567Z,15.10
2022-10-17T12:52:33.007Z,15.00
2022-10-17T12:55:13.077Z,14.90
2022-10-17T12:57:57.158Z,15.00
2022-10-17T13:00:59.818Z,14.90
2022-10-17T13:03:42.119Z,14.90
2022-10-17T13:06:38.139Z,14.90
2022-10-17T13:09:10.371Z,14.90
2022-10-17T13:11:39.776Z,14.80
2022-10-17T13:14:14.661Z,14.90
2022-10-17T13:16:51.660Z,14.90
2022-10-17T13:19:23.769Z,14.90
2022-10-17T13:22:06.021Z,14.90
2022-10-17T13:24:39.304Z,14.90
2022-10-17T13:27:22.052Z,14.90
2022-10-17T13:29:49.762Z,14.90
2022-10-17T13:32:17.877Z,15.00
2022-10-17T13:34:45.323Z,15.00
2022-10-17T13:37:15.968Z,15.00
2022-10-17T13:40:11.365Z,15.00
2022-10-17T13:42:40.139Z,15.30
2022-10-17T13:45:30.050Z,15.20
2022-10-17T13:48:06.084Z,15.10
2022-10-17T13:50:44.140Z,15.10
2022-10-17T13:53:19.731Z,15.00
2022-10-17T13:56:22.827Z,14.80
2022-10-17T13:58:58.302Z,14.70
2022-10-17T14:01:29.203Z,14.60
2022-10-17T14:04:08.491Z,14.60
2022-10-17T14:06:46.391Z,14.50
2022-10-17T14:09:29.588Z,14.40
2022-10-17T14:12:19.181Z,14.30
2022-10-17T14:15:09.683Z,14.20
2022-10-17T14:17:38.925Z,14.10
2022-10-17T14:20:40.755Z,14.00
2022-10-17T14:25:48.227Z,13.80
2022-10-17T14:28:18.747Z,13.70
2022-10-17T14:31:03.199Z,13.60
2022-10-17T14:33:34.532Z,13.40
2022-10-17T14:36:06.561Z,13.20
2022-10-17T14:38:36.516Z,13.20
2022-10-17T14:41:41.522Z,13.10
2022-10-17T14:44:18.462Z,13.00
2022-10-17T14:46:50.675Z,12.80
2022-10-17T14:49:25.094Z,12.70
2022-10-17T14:52:29.265Z,12.50
2022-10-17T14:54:58.184Z,12.50
2022-10-17T14:57:35.836Z,12.20
2022-10-17T15:00:04.207Z,12.10
2022-10-17T15:02:31.836Z,11.90
2022-10-17T15:04:59.414Z,11.90
2022-10-17T15:07:26.763Z,11.80
2022-10-17T15:09:54.378Z,11.70
2022-10-17T15:12:26.456Z,11.60
2022-10-17T15:14:54.579Z,11.50
2022-10-17T15:17:29.299Z,11.50
2022-10-17T15:19:57.817Z,11.60
2022-10-17T15:22:25.446Z,11.50
2022-10-17T15:24:53.046Z,11.90
2022-10-17T15:27:22.935Z,11.80
2022-10-17T15:29:51.889Z,11.70
2022-10-17T15:32:19.434Z,11.80
2022-10-17T15:34:47.041Z,11.80
2022-10-17T15:37:23.761Z,11.80
2022-10-17T15:39:55.849Z,11.80
2022-10-17T15:42:27.197Z,11.90
2022-10-17T15:44:54.652Z,11.70
2022-10-17T15:47:37.772Z,11.70
2022-10-17T15:50:07.436Z,11.80
2022-10-17T15:52:35.647Z,11.70
2022-10-17T15:55:05.324Z,11.80
2022-10-17T15:57:38.528Z,11.90
2022-10-17T16:00:11.760Z,12.00
2022-10-17T16:02:44.567Z,11.90
2022-10-17T16:05:23.662Z,12.10
2022-10-17T16:07:51.117Z,12.00
2022-10-17T16:10:18.958Z,12.10
2022-10-17T16:12:50.154Z,12.00
2022-10-17T16:15:25.674Z,11.90
2022-10-17T16:17:54.986Z,11.80
2022-10-17T16:20:24.766Z,11.80
2022-10-17T16:22:53.575Z,11.70
2022-10-17T16:25:29.549Z,11.50
2022-10-17T16:27:58.654Z,11.40
2022-10-17T16:30:27.926Z,11.30
2022-10-17T16:32:57.100Z,11.30
2022-10-17T16:35:30.648Z,11.30
2022-10-17T16:38:02.134Z,11.30
2022-10-17T16:40:29.629Z,11.30
2022-10-17T16:42:57.104Z,11.20
2022-10-17T16:45:24.505Z,11.30
2022-10-17T16:47:53.216Z,11.20
2022-10-17T16:50:20.618Z,11.30
2022-10-17T16:52:48.228Z,11.20
2022-10-17T16:55:19.223Z,11.30
2022-10-17T16:57:49.519Z,11.40
2022-10-17T17:00:18.029Z,11.40
2022-10-17T17:02:48.096Z,11.40
2022-10-17T17:05:16.075Z,11.40
2022-10-17T17:07:43.569Z,11.40
2022-10-17T17:10:11.136Z,11.30
2022-10-17T17:12:38.423Z,11.40
2022-10-17T17:15:05.891Z,11.40
2022-10-17T17:17:48.787Z,11.30
2022-10-17T17:20:17.921Z,11.20
2022-10-17T17:22:45.273Z,11.10
2022-10-17T17:25:12.627Z,11.00
2022-10-17T17:27:40.100Z,11.00
2022-10-17T17:30:08.184Z,11.10
2022-10-17T17:32:35.574Z,10.90
2022-10-17T17:35:03.095Z,10.90
2022-10-17T17:37:30.822Z,11.00
2022-10-17T17:39:58.333Z,10.90
2022-10-17T17:42:25.664Z,10.80
2022-10-17T17:44:55.020Z,10.90
2022-10-17T17:47:24.619Z,10.80
2022-10-17T17:49:52.366Z,10.80
2022-10-17T17:52:20.646Z,10.70
2022-10-17T17:54:48.393Z,10.80
2022-10-17T17:57:18.947Z,10.80
2022-10-17T17:59:49.906Z,10.80
2022-10-17T18:02:18.061Z,10.70
2022-10-17T18:04:46.072Z,10.70
2022-10-17T18:07:13.389Z,10.70
2022-10-17T18:09:41.609Z,10.70
2022-10-17T18:12:09.099Z,10.70
2022-10-17T18:14:36.564Z,10.70
2022-10-17T18:17:04.499Z,10.70
2022-10-17T18:19:32.154Z,10.70
2022-10-17T18:22:00.137Z,10.60
2022-10-17T18:24:27.549Z,10.70
2022-10-17T18:27:00.040Z,10.60
2022-10-17T18:29:27.964Z,10.60
2022-10-17T18:31:55.990Z,10.50
2022-10-17T18:34:23.818Z,10.50
2022-10-17T18:36:53.089Z,10.50
2022-10-17T18:39:20.894Z,10.50
2022-10-17T18:41:48.725Z,10.50
2022-10-17T18:44:17.138Z,10.50
2022-10-17T18:49:19.260Z,10.50
2022-10-17T18:51:47.334Z,10.60
2022-10-17T18:54:22.489Z,10.60
2022-10-17T18:56:54.735Z,10.60
2022-10-17T18:59:22.407Z,10.60
2022-10-17T19:01:50.111Z,10.60
2022-10-17T19:04:17.828Z,10.60
2022-10-17T19:06:45.648Z,10.70
2022-10-17T19:09:14.257Z,10.60
2022-10-17T19:11:43.185Z,10.60
2022-10-17T19:14:15.259Z,10.60
2022-10-17T19:16:45.851Z,10.70
2022-10-17T19:19:16.659Z,10.70
2022-10-17T19:21:44.660Z,10.70
2022-10-17T19:24:24.488Z,10.60
2022-10-17T19:26:53.886Z,10.60
2022-10-17T19:29:23.249Z,10.60
2022-10-17T19:31:50.936Z,10.60
2022-10-17T19:34:18.779Z,10.60
2022-10-17T19:36:46.611Z,10.60
2022-10-17T19:39:19.646Z,10.60
2022-10-17T19:41:48.621Z,10.60
2022-10-17T19:44:17.522Z,10.50
2022-10-17T19:46:47.243Z,10.50
2022-10-17T19:49:17.063Z,10.50
2022-10-17T19:51:44.770Z,10.40
2022-10-17T19:54:12.745Z,10.50
2022-10-17T19:56:40.689Z,10.40
2022-10-17T19:59:08.950Z,10.40
2022-10-17T20:01:39.328Z,10.40
2022-10-17T20:04:08.788Z,10.40
2022-10-17T20:06:36.415Z,10.40
2022-10-17T20:09:05.333Z,10.40
2022-10-17T20:11:33.015Z,10.40
2022-10-17T20:14:02.220Z,10.30
2022-10-17T20:16:32.249Z,10.40
2022-10-17T20:19:08.646Z,10.30
2022-10-17T20:21:37.537Z,10.30
2022-10-17T20:24:07.171Z,10.40
2022-10-17T20:26:39.059Z,10.40
2022-10-17T20:29:12.195Z,10.40
2022-10-17T20:31:41.300Z,10.40
2022-10-17T20:34:10.205Z,10.30
2022-10-17T20:36:37.753Z,10.40
2022-10-17T20:39:06.568Z,10.40
2022-10-17T20:41:34.644Z,10.40
2022-10-17T20:44:02.449Z,10.30
2022-10-17T20:46:36.844Z,10.20
2022-10-17T20:49:06.542Z,10.30
2022-10-17T20:51:35.178Z,10.30
2022-10-17T20:54:03.319Z,10.30
2022-10-17T20:56:32.776Z,10.20
2022-10-17T20:59:02.844Z,10.30
2022-10-17T21:01:32.071Z,10.20
2022-10-17T21:04:10.465Z,10.30
2022-10-17T21:06:43.766Z,10.20
2022-10-17T21:09:11.164Z,10.20
2022-10-17T21:11:39.566Z,10.30
2022-10-17T21:14:08.308Z,10.30
2022-10-17T21:16:37.858Z,10.40
2022-10-17T21:19:06.518Z,10.30
2022-10-17T21:21:37.221Z,10.30
2022-10-17T21:24:07.218Z,10.30
2022-10-17T21:26:37.164Z,10.30
2022-10-17T21:29:06.084Z,10.40
2022-10-17T21:31:39.489Z,10.40
2022-10-17T21:34:09.886Z,10.30
2022-10-17T21:36:37.417Z,10.30
2022-10-17T21:39:05.385Z,10.40
2022-10-17T21:41:33.525Z,10.40
2022-10-17T21:44:04.840Z,10.30
2022-10-17T21:46:32.823Z,10.40
2022-10-17T21:49:01.262Z,10.30
2022-10-17T21:51:29.330Z,10.30
2022-10-17T21:53:57.933Z,10.30
2022-10-17T21:56:31.135Z,10.40
2022-10-17T21:58:59.607Z,10.40
2022-10-17T22:01:29.637Z,10.40
2022-10-17T22:03:59.766Z,10.40
2022-10-17T22:06:45.263Z,10.50
2022-10-17T22:09:21.841Z,10.50
2022-10-17T22:11:52.099Z,10.50
2022-10-17T22:14:22.247Z,10.50
2022-10-17T22:16:50.766Z,10.50
2022-10-17T22:19:22.846Z,10.50
2022-10-17T22:21:50.361Z,10.50
2022-10-17T22:26:52.542Z,10.60
2022-10-17T22:29:20.211Z,10.60
2022-10-17T22:31:47.780Z,10.60
2022-10-17T22:34:16.710Z,10.70
2022-10-17T22:36:44.941Z,10.60
2022-10-17T22:39:12.539Z,10.70
2022-10-17T22:41:39.944Z,10.60
2022-10-17T22:44:07.428Z,10.70
2022-10-17T22:46:34.907Z,10.70
2022-10-17T22:49:02.519Z,10.80
2022-10-17T22:51:29.806Z,10.80
2022-10-17T22:53:57.386Z,10.80
2022-10-17T22:56:24.849Z,10.80
2022-10-17T22:58:52.802Z,10.80
2022-10-17T23:01:22.947Z,10.90
2022-10-17T23:03:51.695Z,11.00
2022-10-17T23:06:19.351Z,11.00
2022-10-17T23:08:46.838Z,11.10
2022-10-17T23:11:14.188Z,11.00
2022-10-17T23:13:41.770Z,11.20
2022-10-17T23:16:09.808Z,11.20
2022-10-17T23:18:38.717Z,11.20
2022-10-17T23:21:07.080Z,11.30
2022-10-17T23:23:34.775Z,11.20
2022-10-17T23:26:15.279Z,11.40
2022-10-17T23:28:43.595Z,11.30
2022-10-17T23:31:19.447Z,11.40
2022-10-17T23:33:48.735Z,11.60
2022-10-17T23:36:18.741Z,11.50
2022-10-17T23:38:47.565Z,11.60
2022-10-17T23:41:16.153Z,11.60
2022-10-17T23:43:44.241Z,11.70
2022-10-17T23:46:12.124Z,11.60
2022-10-17T23:48:40.548Z,11.70
2022-10-17T23:51:09.052Z,11.80
2022-10-17T23:53:38.083Z,11.80
2022-10-17T23:56:06.868Z,11.80
2022-10-17T23:58:35.170Z,11.90
